createdAt,value
2023-07-03T00:02:43.962Z,100110.34
2023-07-03T00:05:47.953Z,100110.69
2023-07-03T00:08:49.634Z,100105.31
2023-07-03T00:11:51.083Z,100107.03
2023-07-03T00:14:52.543Z,100107.28
2023-07-03T00:17:53.992Z,100107.03
2023-07-03T00:20:56.042Z,100103.16
2023-07-03T00:23:57.489Z,100112.41
2023-07-03T00:26:58.976Z,100107.03
2023-07-03T00:30:00.714Z,100104.63
2023-07-03T00:33:02.274Z,100106.34
2023-07-03T00:36:03.999Z,100110.84
2023-07-03T00:39:05.581Z,100108.16
2023-07-03T00:42:07.201Z,100098.53
2023-07-03T00:45:10.038Z,100107.66
2023-07-03T00:48:11.486Z,100106.81
2023-07-03T00:51:16.142Z,100104.47
2023-07-03T00:54:19.340Z,100100.59
2023-07-03T00:57:24.203Z,100103.28
2023-07-03T01:00:34.599Z,100102.97
2023-07-03T01:03:41.567Z,100098.94
2023-07-03T01:06:51.278Z,100107.25
2023-07-03T01:09:57.008Z,100098.22
2023-07-03T01:13:06.297Z,100106.59
2023-07-03T01:16:09.255Z,100098.94
2023-07-03T01:19:15.633Z,100096.16
2023-07-03T01:22:24.511Z,100088.22
2023-07-03T01:25:27.657Z,100100.41
2023-07-03T01:28:30.114Z,100103.81
2023-07-03T01:31:33.329Z,100100.88
2023-07-03T01:34:35.099Z,100091.75
2023-07-03T01:37:40.912Z,100106.00
2023-07-03T01:40:42.536Z,100100.88
2023-07-03T01:43:46.236Z,100093.84
2023-07-03T01:46:47.716Z,100093.44
2023-07-03T01:49:50.214Z,100088.22
2023-07-03T01:52:56.055Z,100091.81
2023-07-03T01:56:09.585Z,100079.91
2023-07-03T01:59:18.920Z,100081.16
2023-07-03T02:02:29.179Z,100078.97
2023-07-03T02:05:33.330Z,100076.78
2023-07-03T02:08:35.075Z,100081.91
2023-07-03T02:11:37.598Z,100080.78
2023-07-03T02:14:39.533Z,100088.09
2023-07-03T02:17:43.366Z,100087.72
2023-07-03T02:20:46.393Z,100077.88
2023-07-03T02:23:48.542Z,100086.63
2023-07-03T02:26:51.313Z,100083.47
2023-07-03T02:29:53.674Z,100081.13
2023-07-03T02:32:55.141Z,100082.59
2023-07-03T02:35:56.604Z,100080.28
2023-07-03T02:38:58.822Z,100089.88
2023-07-03T02:42:02.016Z,100084.25
2023-07-03T02:45:04.886Z,100089.88
2023-07-03T02:48:09.386Z,100085.88
2023-07-03T02:51:14.083Z,100077.97
2023-07-03T02:54:15.542Z,100078.19
2023-07-03T02:57:17.142Z,100089.94
2023-07-03T03:00:18.835Z,100085.56
2023-07-03T03:03:20.420Z,100082.53
2023-07-03T03:06:22.018Z,100077.00
2023-07-03T03:09:24.337Z,100076.72
2023-07-03T03:12:27.018Z,100080.13
2023-07-03T03:15:29.976Z,100103.38
2023-07-03T03:18:31.429Z,100092.00
2023-07-03T03:21:32.969Z,100104.63
2023-07-03T03:24:35.205Z,100099.75
2023-07-03T03:27:36.757Z,100101.44
2023-07-03T03:30:39.405Z,100103.16
2023-07-03T03:33:41.028Z,100102.44
2023-07-03T03:36:43.647Z,100099.75
2023-07-03T03:39:45.455Z,100097.84
2023-07-03T03:42:47.017Z,100103.72
2023-07-03T03:46:02.538Z,100104.38
2023-07-03T03:49:05.156Z,100108.50
2023-07-03T03:52:08.960Z,100105.13
2023-07-03T03:55:10.583Z,100108.31
2023-07-03T03:58:12.214Z,100105.88
2023-07-03T04:01:15.340Z,100111.69
2023-07-03T04:04:17.330Z,100107.31
2023-07-03T04:07:19.839Z,100111.44
2023-07-03T04:10:21.375Z,100102.50
2023-07-03T04:13:23.204Z,100107.00
2023-07-03T04:16:27.591Z,100109.69
2023-07-03T04:19:30.211Z,100110.00
2023-07-03T04:22:31.864Z,100132.78
2023-07-03T04:25:33.313Z,100119.91
2023-07-03T04:28:34.785Z,100135.00
2023-07-03T04:31:38.388Z,100133.56
2023-07-03T04:34:39.885Z,100135.00
2023-07-03T04:37:41.345Z,100140.25
2023-07-03T04:40:43.142Z,100141.31
2023-07-03T04:43:47.355Z,100134.94
2023-07-03T04:46:49.770Z,100140.34
2023-07-03T04:49:51.181Z,100137.31
2023-07-03T04:52:53.446Z,100149.53
2023-07-03T04:55:55.226Z,100151.13
2023-07-03T04:58:57.162Z,100155.72
2023-07-03T05:01:59.379Z,100163.84
2023-07-03T05:05:01.077Z,100152.25
2023-07-03T05:08:02.820Z,100151.50
2023-07-03T05:11:04.315Z,100142.84
2023-07-03T05:14:05.773Z,100150.91
2023-07-03T05:17:07.267Z,100162.38
2023-07-03T05:20:12.252Z,100171.13
2023-07-03T05:23:16.641Z,100182.88
2023-07-03T05:26:18.184Z,100180.00
2023-07-03T05:29:19.670Z,100180.34
2023-07-03T05:32:21.112Z,100187.44
2023-07-03T05:35:22.612Z,100193.00
2023-07-03T05:38:24.056Z,100188.00
2023-07-03T05:41:25.543Z,100192.00
2023-07-03T05:44:27.079Z,100203.56
2023-07-03T05:47:28.994Z,100206.63
2023-07-03T05:50:30.859Z,100210.84
2023-07-03T05:53:32.292Z,100216.59
2023-07-03T05:56:33.757Z,100215.56
2023-07-03T05:59:36.732Z,100214.88
2023-07-03T06:02:38.441Z,100216.59
2023-07-03T06:05:39.956Z,100226.38
2023-07-03T06:08:41.782Z,100221.53
2023-07-03T06:11:43.281Z,100232.22
2023-07-03T06:14:44.730Z,100228.81
2023-07-03T06:17:46.270Z,100239.06
2023-07-03T06:20:48.588Z,100238.94
2023-07-03T06:23:50.015Z,100240.09
2023-07-03T06:26:52.573Z,100240.41
2023-07-03T06:29:54.054Z,100244.53
2023-07-03T06:32:55.516Z,100255.50
2023-07-03T06:35:57.056Z,100248.28
2023-07-03T06:39:00.573Z,100255.66
2023-07-03T06:42:03.142Z,100261.66
2023-07-03T06:45:05.288Z,100264.38
2023-07-03T06:48:06.808Z,100268.34
2023-07-03T06:51:10.850Z,100267.97
2023-07-03T06:54:12.314Z,100278.56
2023-07-03T06:57:14.178Z,100270.44
2023-07-03T07:00:16.241Z,100274.53
2023-07-03T07:03:17.832Z,100272.72
2023-07-03T07:06:23.672Z,100271.97
2023-07-03T07:09:25.618Z,100269.69
2023-07-03T07:12:27.042Z,100272.97
2023-07-03T07:15:28.691Z,100272.69
2023-07-03T07:18:30.146Z,100273.50
2023-07-03T07:21:33.905Z,100269.88
2023-07-03T07:24:35.455Z,100274.38
2023-07-03T07:27:36.911Z,100260.00
2023-07-03T07:30:39.076Z,100265.91
2023-07-03T07:33:40.519Z,100270.25
2023-07-03T07:36:42.147Z,100267.72
2023-07-03T07:39:44.080Z,100275.66
2023-07-03T07:42:45.505Z,100272.88
2023-07-03T07:45:53.757Z,100269.97
2023-07-03T07:48:59.891Z,100267.06
2023-07-03T07:52:01.723Z,100269.34
2023-07-03T07:55:03.596Z,100270.72
2023-07-03T07:58:05.435Z,100261.03
2023-07-03T08:01:07.204Z,100262.28
2023-07-03T08:04:08.680Z,100252.44
2023-07-03T08:07:10.514Z,100256.50
2023-07-03T08:10:12.527Z,100251.47
2023-07-03T08:13:13.949Z,100248.91
2023-07-03T08:16:16.606Z,100251.56
2023-07-03T08:19:18.256Z,100246.47
2023-07-03T08:22:19.704Z,100259.84
2023-07-03T08:25:22.608Z,100255.13
2023-07-03T08:28:24.240Z,100269.13
2023-07-03T08:31:25.808Z,100267.06
2023-07-03T08:34:27.297Z,100272.44
2023-07-03T08:37:30.002Z,100276.53
2023-07-03T08:40:31.735Z,100262.66
2023-07-03T08:43:42.092Z,100265.25
2023-07-03T08:46:46.556Z,100267.41
2023-07-03T08:49:53.315Z,100274.81
2023-07-03T08:52:59.193Z,100285.09
2023-07-03T08:56:15.116Z,100274.88
2023-07-03T08:59:16.595Z,100280.25
2023-07-03T09:02:27.592Z,100285.81
2023-07-03T09:06:01.523Z,100278.97
2023-07-03T09:09:08.198Z,100283.59
2023-07-03T09:12:20.575Z,100280.59
2023-07-03T09:15:29.986Z,100271.16
2023-07-03T09:18:42.893Z,100297.75
2023-07-03T09:21:45.387Z,100295.22
2023-07-03T09:24:49.119Z,100284.50
2023-07-03T09:27:55.868Z,100294.31
2023-07-03T09:30:57.522Z,100291.09
2023-07-03T09:33:59.584Z,100295.56
2023-07-03T09:37:04.366Z,100302.41
2023-07-03T09:40:10.554Z,100308.72
2023-07-03T09:43:14.333Z,100319.50
2023-07-03T09:46:17.708Z,100319.28
2023-07-03T09:49:29.223Z,100318.78
2023-07-03T09:52:30.754Z,100318.03
2023-07-03T09:55:33.178Z,100319.72
2023-07-03T09:58:34.657Z,100319.88
2023-07-03T10:07:50.326Z,100310.81
2023-07-03T10:14:03.869Z,100326.13
2023-07-03T10:17:13.614Z,100329.34
2023-07-03T10:20:28.143Z,100320.50
2023-07-03T10:23:32.691Z,100328.69
2023-07-03T10:26:43.247Z,100321.94
2023-07-03T10:29:50.913Z,100327.78
2023-07-03T10:32:54.762Z,100340.13
2023-07-03T10:35:56.565Z,100325.28
2023-07-03T10:39:12.360Z,100325.25
2023-07-03T10:42:23.156Z,100323.19
2023-07-03T10:45:26.562Z,100329.06
2023-07-03T10:48:33.528Z,100318.19
2023-07-03T10:52:00.100Z,100312.06
2023-07-03T10:55:25.573Z,100317.22
2023-07-03T10:58:38.422Z,100319.13
2023-07-03T11:01:52.532Z,100313.53
2023-07-03T11:04:59.985Z,100296.97
2023-07-03T11:08:17.555Z,100293.44
2023-07-03T11:11:32.830Z,100286.72
2023-07-03T11:14:56.256Z,100281.97
2023-07-03T11:25:06.250Z,100275.22
2023-07-03T11:28:36.516Z,100272.03
2023-07-03T11:31:42.440Z,100260.06
2023-07-03T11:40:55.525Z,100259.13
2023-07-03T11:43:57.141Z,100256.69
2023-07-03T11:47:07.160Z,100262.63
2023-07-03T11:50:09.571Z,100260.94
2023-07-03T11:53:11.170Z,100256.06
2023-07-03T11:56:32.282Z,100254.16
2023-07-03T11:59:37.454Z,100258.94
2023-07-03T12:02:44.079Z,100260.66
2023-07-03T12:05:45.752Z,100256.53
2023-07-03T12:08:47.373Z,100256.00
2023-07-03T12:12:01.014Z,100255.88
2023-07-03T12:15:10.354Z,100262.53
2023-07-03T12:18:12.094Z,100273.97
2023-07-03T12:21:13.655Z,100268.84
2023-07-03T12:24:29.406Z,100272.78
2023-07-03T12:27:30.963Z,100272.53
2023-07-03T12:30:32.404Z,100268.44
2023-07-03T12:33:33.891Z,100267.25
2023-07-03T12:36:40.146Z,100271.66
2023-07-03T12:39:48.655Z,100265.69
2023-07-03T12:42:53.937Z,100279.31
2023-07-03T12:45:55.609Z,100268.72
2023-07-03T12:49:05.831Z,100269.50
2023-07-03T12:52:07.305Z,100273.16
2023-07-03T12:55:15.114Z,100271.78
2023-07-03T12:58:19.896Z,100273.16
2023-07-03T13:01:21.423Z,100267.34
2023-07-03T13:04:31.653Z,100262.09
2023-07-03T13:07:33.996Z,100281.09
2023-07-03T13:10:35.569Z,100263.66
2023-07-03T13:13:37.051Z,100272.00
2023-07-03T13:16:39.915Z,100266.28
2023-07-03T13:19:41.452Z,100264.91
2023-07-03T13:22:51.764Z,100267.34
2023-07-03T13:25:54.648Z,100271.59
2023-07-03T13:29:01.980Z,100274.16
2023-07-03T13:32:23.122Z,100254.94
2023-07-03T13:35:35.200Z,100252.13
2023-07-03T13:38:37.088Z,100239.47
2023-07-03T13:41:40.358Z,100242.34
2023-07-03T13:44:41.888Z,100243.97
2023-07-03T13:47:43.713Z,100245.38
2023-07-03T13:50:53.534Z,100242.59
2023-07-03T13:54:03.257Z,100242.03
2023-07-03T13:57:13.645Z,100236.72
2023-07-03T14:00:15.490Z,100236.81
2023-07-03T14:03:17.704Z,100244.69
2023-07-03T14:06:21.571Z,100247.47
2023-07-03T14:09:24.315Z,100246.69
2023-07-03T14:12:25.741Z,100241.72
2023-07-03T14:15:28.366Z,100224.69
2023-07-03T14:18:29.863Z,100229.63
2023-07-03T14:21:31.337Z,100222.19
2023-07-03T14:24:32.803Z,100217.69
2023-07-03T14:27:38.300Z,100214.53
2023-07-03T14:30:39.991Z,100215.69
2023-07-03T14:33:41.751Z,100213.19
2023-07-03T14:36:43.350Z,100213.16
2023-07-03T14:39:44.912Z,100210.28
2023-07-03T14:42:46.983Z,100211.00
2023-07-03T14:45:49.028Z,100207.66
2023-07-03T14:48:50.994Z,100205.69
2023-07-03T14:51:52.809Z,100205.53
2023-07-03T14:54:54.274Z,100183.06
2023-07-03T14:57:55.950Z,100184.47
2023-07-03T15:01:02.066Z,100180.91
2023-07-03T15:04:06.908Z,100183.50
2023-07-03T15:07:08.533Z,100191.72
2023-07-03T15:10:13.416Z,100192.47
2023-07-03T15:13:18.509Z,100175.28
2023-07-03T15:16:35.176Z,100182.19
2023-07-03T15:19:41.358Z,100174.03
2023-07-03T15:22:42.832Z,100176.75
2023-07-03T15:25:45.080Z,100167.25
2023-07-03T15:28:47.198Z,100157.44
2023-07-03T15:31:49.458Z,100159.97
2023-07-03T15:34:54.938Z,100151.31
2023-07-03T15:37:56.540Z,100155.34
2023-07-03T15:40:59.760Z,100161.03
2023-07-03T15:44:02.749Z,100157.06
2023-07-03T15:47:06.802Z,100158.59
2023-07-03T15:50:08.804Z,100155.50
2023-07-03T15:53:10.737Z,100151.88
2023-07-03T15:56:15.712Z,100164.84
2023-07-03T15:59:17.900Z,100153.91
2023-07-03T16:02:19.372Z,100151.06
2023-07-03T16:05:20.820Z,100150.81
2023-07-03T16:08:22.241Z,100150.84
2023-07-03T16:11:24.534Z,100151.38
2023-07-03T16:14:27.991Z,100154.09
2023-07-03T16:17:34.720Z,100158.22
2023-07-03T16:20:36.165Z,100161.75
2023-07-03T16:23:37.605Z,100172.44
2023-07-03T16:26:39.031Z,100181.53
2023-07-03T16:29:43.379Z,100191.38
2023-07-03T16:32:46.950Z,100202.22
2023-07-03T16:36:15.097Z,100200.97
2023-07-03T16:39:16.642Z,100186.19
2023-07-03T16:42:18.126Z,100175.94
2023-07-03T16:45:19.872Z,100180.91
2023-07-03T16:48:21.321Z,100177.97
2023-07-03T16:51:23.677Z,100177.72
2023-07-03T16:54:25.124Z,100163.22
2023-07-03T16:57:27.685Z,100157.00
2023-07-03T17:00:29.145Z,100151.38
2023-07-03T17:03:32.152Z,100167.44
2023-07-03T17:06:36.215Z,100164.41
2023-07-03T17:09:37.824Z,100157.56
2023-07-03T17:12:39.312Z,100153.16
2023-07-03T17:15:40.761Z,100149.94
2023-07-03T17:18:42.218Z,100157.63
2023-07-03T17:21:43.833Z,100155.63
2023-07-03T17:24:45.335Z,100160.75
2023-07-03T17:27:47.783Z,100157.91
2023-07-03T17:30:50.500Z,100150.84
2023-07-03T17:33:55.921Z,100142.97
2023-07-03T17:36:57.364Z,100143.63
2023-07-03T17:39:58.861Z,100147.72
2023-07-03T17:43:00.318Z,100143.47
2023-07-03T17:46:02.194Z,100157.22
2023-07-03T17:49:03.704Z,100160.09
2023-07-03T17:52:05.336Z,100161.06
2023-07-03T17:55:07.405Z,100166.16
2023-07-03T17:58:09.063Z,100182.69
2023-07-03T18:01:11.742Z,100184.66
2023-07-03T18:04:13.222Z,100188.16
2023-07-03T18:07:16.036Z,100197.97
2023-07-03T18:10:17.543Z,100180.25
2023-07-03T18:13:19.130Z,100186.09
2023-07-03T18:16:20.932Z,100173.66
2023-07-03T18:19:22.895Z,100170.25
2023-07-03T18:22:24.397Z,100170.72
2023-07-03T18:25:25.920Z,100168.25
2023-07-03T18:28:27.495Z,100168.91
2023-07-03T18:31:29.041Z,100171.09
2023-07-03T18:34:30.530Z,100162.16
2023-07-03T18:37:32.526Z,100166.22
2023-07-03T18:40:34.054Z,100164.69
2023-07-03T18:43:35.538Z,100156.84
2023-07-03T18:46:37.153Z,100146.25
2023-07-03T18:49:39.222Z,100148.41
2023-07-03T18:52:41.412Z,100140.16
2023-07-03T18:55:52.887Z,100144.56
2023-07-03T18:58:54.577Z,100159.16
2023-07-03T19:01:56.068Z,100154.75
2023-07-03T19:04:57.679Z,100155.88
2023-07-03T19:07:59.147Z,100166.97
2023-07-03T19:11:00.915Z,100160.88
2023-07-03T19:14:02.619Z,100156.59
2023-07-03T19:17:04.940Z,100165.38
2023-07-03T19:20:07.769Z,100163.84
2023-07-03T19:23:09.571Z,100162.88
2023-07-03T19:26:11.256Z,100159.59
2023-07-03T19:29:13.452Z,100159.25
2023-07-03T19:32:14.957Z,100146.59
2023-07-03T19:35:16.429Z,100162.41
2023-07-03T19:38:18.536Z,100164.16
2023-07-03T19:41:20.282Z,100156.34
2023-07-03T19:44:21.831Z,100159.19
2023-07-03T19:47:23.479Z,100166.22
2023-07-03T19:50:24.995Z,100163.69
2023-07-03T19:53:26.479Z,100169.28
2023-07-03T19:56:28.771Z,100171.16
2023-07-03T19:59:30.222Z,100173.72
2023-07-03T20:02:33.170Z,100176.16
2023-07-03T20:05:36.214Z,100186.66
2023-07-03T20:08:41.351Z,100189.56
2023-07-03T20:11:42.980Z,100189.91
2023-07-03T20:14:44.491Z,100192.09
2023-07-03T20:17:46.026Z,100196.63
2023-07-03T20:20:47.517Z,100209.81
2023-07-03T20:23:52.796Z,100203.81
2023-07-03T20:26:54.405Z,100200.31
2023-07-03T20:29:55.863Z,100206.53
2023-07-03T20:32:57.412Z,100209.59
2023-07-03T20:36:06.614Z,100203.81
2023-07-03T20:39:08.149Z,100209.56
2023-07-03T20:42:09.688Z,100204.22
2023-07-03T20:45:11.175Z,100217.34
2023-07-03T20:48:12.629Z,100217.13
2023-07-03T20:51:15.188Z,100214.44
2023-07-03T20:54:36.918Z,100211.03
2023-07-03T20:57:38.924Z,100211.03
2023-07-03T21:00:40.376Z,100214.44
2023-07-03T21:03:45.288Z,100216.63
2023-07-03T21:06:50.150Z,100219.91
2023-07-03T21:09:52.824Z,100218.81
2023-07-03T21:12:54.372Z,100215.03
2023-07-03T21:15:55.834Z,100224.16
2023-07-03T21:18:57.571Z,100230.13
2023-07-03T21:21:59.110Z,100230.00
2023-07-03T21:25:02.978Z,100226.84
2023-07-03T21:28:05.640Z,100231.94
2023-07-03T21:31:07.479Z,100234.84
2023-07-03T21:34:09.797Z,100230.72
2023-07-03T21:37:11.541Z,100233.66
2023-07-03T21:40:13.470Z,100232.38
2023-07-03T21:43:14.940Z,100238.22
2023-07-03T21:46:16.975Z,100237.25
2023-07-03T21:49:18.488Z,100235.44
2023-07-03T21:52:20.157Z,100240.91
2023-07-03T21:55:21.580Z,100234.59
2023-07-03T21:58:23.047Z,100235.53
2023-07-03T22:01:37.723Z,100236.41
2023-07-03T22:04:39.436Z,100241.88
2023-07-03T22:07:40.944Z,100234.53
2023-07-03T22:10:42.584Z,100231.44
2023-07-03T22:13:44.508Z,100231.56
2023-07-03T22:16:46.015Z,100227.31
2023-07-03T22:19:47.626Z,100229.88
2023-07-03T22:22:52.290Z,100225.00
2023-07-03T22:25:56.251Z,100222.78
2023-07-03T22:28:58.006Z,100230.06
2023-07-03T22:31:59.469Z,100219.91
2023-07-03T22:35:00.936Z,100226.59
2023-07-03T22:38:02.351Z,100220.88
2023-07-03T22:41:04.137Z,100229.22
2023-07-03T22:44:05.837Z,100219.59
2023-07-03T22:47:07.860Z,100229.44
2023-07-03T22:50:09.748Z,100236.50
2023-07-03T22:53:11.804Z,100228.44
2023-07-03T22:56:13.337Z,100221.88
2023-07-03T22:59:15.491Z,100226.47
2023-07-03T23:02:19.036Z,100229.28
2023-07-03T23:05:20.544Z,100231.31
2023-07-03T23:08:25.065Z,100222.34
2023-07-03T23:11:26.670Z,100224.72
2023-07-03T23:14:28.177Z,100226.75
2023-07-03T23:17:32.588Z,100228.91
2023-07-03T23:20:34.289Z,100222.81
2023-07-03T23:23:35.861Z,100226.34
2023-07-03T23:26:38.248Z,100227.09
2023-07-03T23:29:40.047Z,100227.00
2023-07-03T23:32:41.529Z,100233.16
2023-07-03T23:35:44.297Z,100238.66
2023-07-03T23:38:45.750Z,100234.28
2023-07-03T23:41:47.289Z,100225.50
2023-07-03T23:44:48.924Z,100230.22
2023-07-03T23:47:52.216Z,100239.16
2023-07-03T23:50:56.149Z,100239.16
2023-07-03T23:53:58.280Z,100240.91
2023-07-03T23:57:00.043Z,100233.94
